Time;durP1;ratioP1;P1;durP2;ratioP2;P2;SDS_P1;SDS_P2;PMS_P1;PMS_P2;Temp;Humidity;BMP_temperature;BMP_pressure;BME280_temperature;BME280_humidity;BME280_pressure;Samples;Min_cycle;Max_cycle;Signal;HPM_P1;HPM_P2
2022/06/25 00:01:07;;;;;;;;;;;20.50;13.90;;;;;;6246282;23;20293;-91
2022/06/25 00:03:34;;;;;;;;;;;20.40;15.00;;;;;;6246397;23;20274;-91
2022/06/25 00:06:01;;;;;;;;;;;20.40;17.40;;;;;;6245894;23;19990;-91
2022/06/25 00:08:29;;;;;;;5.10;3.70;;;20.30;18.70;;;;;;6245813;23;20229;-91
2022/06/25 00:10:57;;;;;;;3.60;3.17;;;20.20;20.80;;;;;;6245512;23;20184;-90
2022/06/25 00:13:23;;;;;;;6.47;3.13;;;20.20;23.00;;;;;;6245210;23;20244;-92
2022/06/25 00:15:53;;;;;;;6.63;4.05;;;20.20;25.70;;;;;;6245642;23;20168;-90
2022/06/25 00:18:20;;;;;;;6.47;3.88;;;20.20;29.40;;;;;;6245604;23;20172;-91
2022/06/25 00:20:48;;;;;;;7.10;3.95;;;20.10;32.00;;;;;;6245173;23;20164;-91
2022/06/25 00:23:16;;;;;;;8.30;4.20;;;20.10;34.60;;;;;;6245636;23;20255;-91
2022/06/25 00:25:44;;;;;;;4.60;3.55;;;20.00;37.90;;;;;;6246237;23;20226;-90
2022/06/25 00:28:11;;;;;;;5.53;3.10;;;20.00;45.90;;;;;;6245988;23;20157;-91
2022/06/25 00:30:39;;;;;;;4.05;3.22;;;19.90;61.50;;;;;;6245147;23;20580;-90
2022/06/25 00:33:08;;;;;;;;;;;19.80;85.90;;;;;;6245871;23;20054;-91
2022/06/25 00:35:35;;;;;;;;;;;19.70;94.30;;;;;;6246168;23;20246;-91
2022/06/25 00:38:02;;;;;;;;;;;19.60;99.90;;;;;;6245791;23;19921;-91
2022/06/25 00:40:29;;;;;;;;;;;19.50;99.90;;;;;;6245729;23;20291;-90
2022/06/25 00:42:57;;;;;;;;;;;19.40;99.90;;;;;;6246173;23;20350;-91
2022/06/25 00:45:24;;;;;;;;;;;19.30;99.90;;;;;;6246636;23;20354;-91
2022/06/25 00:47:51;;;;;;;;;;;19.30;99.90;;;;;;6245844;23;19915;-91
2022/06/25 00:50:20;;;;;;;;;;;19.30;99.90;;;;;;6245927;23;19946;-90
2022/06/25 00:52:48;;;;;;;;;;;19.30;99.90;;;;;;6246373;22;19922;-91
2022/06/25 00:55:19;;;;;;;;;;;19.20;99.90;;;;;;6246318;23;19916;-90
2022/06/25 00:57:50;;;;;;;;;;;19.10;99.90;;;;;;6245980;23;19919;-91
2022/06/25 01:00:17;;;;;;;;;;;19.10;99.90;;;;;;6245747;23;19919;-92
2022/06/25 01:02:45;;;;;;;;;;;19.10;99.90;;;;;;6245933;23;19915;-92
2022/06/25 01:05:13;;;;;;;;;;;19.00;1.00;;;;;;6246402;23;19919;-91
2022/06/25 01:07:44;;;;;;;;;;;19.00;1.00;;;;;;6246001;23;20362;-91
2022/06/25 01:10:13;;;;;;;;;;;18.90;1.00;;;;;;6246779;23;19946;-92
2022/06/25 01:12:40;;;;;;;;;;;18.80;1.00;;;;;;6245918;23;19942;-91
2022/06/25 01:15:09;;;;;;;;;;;18.80;1.00;;;;;;6246683;23;19945;-91
2022/06/25 01:17:37;;;;;;;;;;;18.70;1.00;;;;;;6247888;23;19923;-91
2022/06/25 01:20:04;;;;;;;;;;;18.60;1.00;;;;;;6247866;23;19985;-91
2022/06/25 01:22:33;;;;;;;;;;;18.60;1.00;;;;;;6247830;23;19916;-90
2022/06/25 01:25:00;;;;;;;;;;;18.50;1.00;;;;;;6248073;23;19915;-90
2022/06/25 01:27:28;;;;;;;;;;;18.40;96.50;;;;;;6249357;23;19922;-91
2022/06/25 01:29:55;;;;;;;;;;;18.40;99.90;;;;;;6248272;23;19935;-92
2022/06/25 01:32:22;;;;;;;;;;;18.30;99.90;;;;;;6248188;23;19965;-91
2022/06/25 01:34:50;;;;;;;;;;;18.30;99.90;;;;;;6248607;23;19915;-92
2022/06/25 01:37:17;;;;;;;;;;;18.20;99.90;;;;;;6248902;23;19931;-92
2022/06/25 01:39:46;;;;;;;;;;;18.20;1.00;;;;;;6249796;23;19916;-91
2022/06/25 01:44:54;;;;;;;;;;;18.20;1.00;;;;;;6248927;23;20240;-91
2022/06/25 01:47:21;;;;;;;;;;;18.20;1.00;;;;;;6248778;23;19919;-91
2022/06/25 01:49:48;;;;;;;;;;;18.20;1.00;;;;;;6250497;23;20387;-92
2022/06/25 01:52:16;;;;;;;;;;;18.10;1.00;;;;;;6250924;22;19922;-90
2022/06/25 01:54:43;;;;;;;;;;;18.10;1.00;;;;;;6250465;23;20323;-91
2022/06/25 01:57:12;;;;;;;;;;;18.00;1.00;;;;;;6248217;23;19915;-90
2022/06/25 01:59:39;;;;;;;;;;;17.90;1.00;;;;;;6249205;23;20010;-90
2022/06/25 02:02:06;;;;;;;;;;;17.80;1.00;;;;;;6248185;23;20242;-90
2022/06/25 02:04:33;;;;;;;;;;;17.70;1.00;;;;;;6249495;23;19970;-91
2022/06/25 02:07:01;;;;;;;;;;;17.60;90.80;;;;;;6249778;23;20243;-91
2022/06/25 02:09:28;;;;;;;;;;;17.50;99.90;;;;;;6248963;23;19939;-91
2022/06/25 02:11:55;;;;;;;;;;;17.50;99.90;;;;;;6249244;23;19915;-91
2022/06/25 02:14:24;;;;;;;;;;;17.40;99.90;;;;;;6250905;23;19916;-91
2022/06/25 02:16:51;;;;;;;;;;;17.40;99.90;;;;;;6250403;23;19927;-90
2022/06/25 02:19:18;;;;;;;;;;;17.30;99.90;;;;;;6249887;23;20311;-91
2022/06/25 02:21:46;;;;;;;;;;;17.30;99.90;;;;;;6253523;23;19955;-91
2022/06/25 02:24:13;;;;;;;;;;;17.30;99.90;;;;;;6250709;23;19916;-90
2022/06/25 02:26:40;;;;;;;;;;;17.30;99.90;;;;;;6253568;23;19916;-91
2022/06/25 02:29:07;;;;;;;;;;;17.30;99.90;;;;;;6249584;23;19965;-91
2022/06/25 02:31:36;;;;;;;;;;;17.20;99.90;;;;;;6251454;23;20287;-90
2022/06/25 02:34:03;;;;;;;;;;;17.20;99.90;;;;;;6248600;23;19990;-90
2022/06/25 02:36:31;;;;;;;;;;;17.30;99.90;;;;;;6254054;23;19920;-91
2022/06/25 02:47:18;;;;;;;;;;;17.30;99.90;;;;;;6219864;22;19946;-91
2022/06/25 02:49:45;;;;;;;;;;;17.40;99.90;;;;;;6250752;23;19916;-91
2022/06/25 02:52:12;;;;;;;;;;;17.40;99.90;;;;;;6250044;23;19947;-92
2022/06/25 02:54:40;;;;;;;;;;;17.50;99.90;;;;;;6250449;23;19947;-91
2022/06/25 03:00:16;;;;;;;;;;;17.50;98.10;;;;;;6248829;23;19922;-90
2022/06/25 03:02:45;;;;;;;;;;;17.60;37.00;;;;;;6247286;23;20289;-91
2022/06/25 03:05:12;;;;;;;;;;;17.60;81.80;;;;;;6247384;23;19915;-91
2022/06/25 03:07:39;;;;;;;;;;;17.60;90.80;;;;;;6247452;23;19926;-91
2022/06/25 03:10:07;;;;;;;;;;;17.70;75.80;;;;;;6247587;23;19916;-91
2022/06/25 03:12:35;;;;;;;;;;;17.80;65.60;;;;;;6247341;23;20226;-91
2022/06/25 03:15:03;;;;;;;;;;;17.90;68.70;;;;;;6247276;23;19986;-91
2022/06/25 03:17:30;;;;;;;;;;;17.90;77.80;;;;;;6247121;23;19962;-91
2022/06/25 03:19:59;;;;;;;;;;;18.00;99.90;;;;;;6247815;23;19915;-90
2022/06/25 03:22:26;;;;;;;;;;;18.10;92.40;;;;;;6248090;23;20294;-91
2022/06/25 03:25:08;;;;;;;;;;;18.20;97.60;;;;;;6261976;23;19960;-93
2022/06/25 03:39:42;;;;;;;;;;;18.80;99.90;;;;;;6252037;22;19906;-95
2022/06/25 04:06:05;;;;;;;;;;;24.80;85.80;;;;;;6273867;22;19953;-94
2022/06/25 04:20:37;;;;;;;;;;;27.40;1.00;;;;;;6264596;22;19915;-92
2022/06/25 04:23:05;;;;;;;;;;;27.70;1.00;;;;;;6249565;23;19922;-91
2022/06/25 04:25:33;;;;;;;;;;;28.10;1.00;;;;;;6249165;23;19919;-90
2022/06/25 04:30:45;;;;;;;;;;;29.20;1.00;;;;;;6248666;23;19965;-90
2022/06/25 04:33:12;;;;;;;;;;;29.90;1.00;;;;;;6247168;23;19923;-90
2022/06/25 04:35:39;;;;;;;;;;;30.60;1.00;;;;;;6250015;23;19954;-91
2022/06/25 04:38:07;;;;;;;6.35;3.70;;;31.10;1.00;;;;;;6247798;23;20167;-90
2022/06/25 04:40:36;;;;;;;5.32;4.00;;;31.50;1.00;;;;;;6245353;23;20523;-90
2022/06/25 04:43:04;;;;;;;7.28;3.75;;;31.80;1.00;;;;;;6247158;23;20168;-91
2022/06/25 04:45:31;;;;;;;6.43;3.92;;;31.80;1.00;;;;;;6247017;23;20235;-90
2022/06/25 04:48:01;;;;;;;5.13;3.60;;;31.80;1.00;;;;;;6247448;23;20492;-90
2022/06/25 04:50:29;;;;;;;7.57;3.80;;;32.00;1.00;;;;;;6247424;23;20661;-91
2022/06/25 04:52:57;;;;;;;6.57;3.60;;;32.00;1.00;;;;;;6249181;23;20184;-90
2022/06/25 04:55:24;;;;;;;7.18;3.65;;;32.20;1.00;;;;;;6250084;23;20250;-90
2022/06/25 04:57:53;;;;;;;4.05;3.42;;;32.30;1.00;;;;;;6248943;23;20179;-90
2022/06/25 05:00:21;;;;;;;4.05;3.55;;;32.60;1.00;;;;;;6250255;22;20167;-91
2022/06/25 05:02:49;;;;;;;6.70;3.80;;;32.80;1.00;;;;;;6249427;23;20160;-91
2022/06/25 05:05:17;;;;;;;4.70;3.70;;;33.00;1.00;;;;;;6249523;23;20168;-91
2022/06/25 05:07:44;;;;;;;6.72;3.80;;;33.00;1.00;;;;;;6248146;23;20161;-91
2022/06/25 05:10:12;;;;;;;6.80;3.60;;;32.40;1.00;;;;;;6248447;23;20533;-91
2022/06/25 05:15:26;;;;;;;8.52;3.25;;;31.90;1.00;;;;;;6248555;23;20203;-90
2022/06/25 05:17:53;;;;;;;7.93;3.40;;;32.30;1.00;;;;;;6247781;23;20251;-91
2022/06/25 05:20:21;;;;;;;8.32;3.83;;;32.90;1.00;;;;;;6250516;23;20145;-91
2022/06/25 05:22:49;;;;;;;5.25;3.72;;;33.30;1.00;;;;;;6250154;23;20160;-91
2022/06/25 05:25:16;;;;;;;4.05;3.30;;;33.60;1.00;;;;;;6249082;23;20246;-91
2022/06/25 05:27:44;;;;;;;7.43;3.38;;;34.10;1.00;;;;;;6248723;23;20518;-91
2022/06/25 05:30:12;;;;;;;6.82;3.50;;;33.90;1.00;;;;;;6248385;23;20239;-91
2022/06/25 05:32:41;;;;;;;4.90;3.28;;;33.60;1.00;;;;;;6247974;23;20180;-90
2022/06/25 05:35:09;;;;;;;5.15;3.80;;;33.10;1.00;;;;;;6247768;23;20227;-90
2022/06/25 05:37:37;;;;;;;4.28;3.80;;;32.50;1.00;;;;;;6248098;23;20167;-90
2022/06/25 05:40:27;;;;;;;5.28;4.00;;;31.70;1.00;;;;;;6250456;23;20227;-93
2022/06/25 05:45:30;;;;;;;4.30;3.85;;;30.60;1.00;;;;;;6280876;22;20171;-91
2022/06/25 06:02:23;;;;;;;5.47;4.90;;;28.80;1.00;;;;;;6211505;22;20211;-92
2022/06/25 06:04:50;;;;;;;5.43;4.30;;;28.70;1.00;;;;;;6250826;23;20168;-92
2022/06/25 06:13:09;;;;;;;4.28;3.88;;;28.80;1.00;;;;;;6250698;22;20484;-92
2022/06/25 06:15:41;;;;;;;4.90;4.10;;;29.00;1.00;;;;;;6250449;23;20248;-93
2022/06/25 06:18:10;;;;;;;4.10;3.70;;;29.10;1.00;;;;;;6249673;23;20219;-92
2022/06/25 06:20:38;;;;;;;5.75;4.65;;;29.20;1.00;;;;;;6247220;23;20169;-92
2022/06/25 06:23:06;;;;;;;5.90;4.32;;;29.40;1.00;;;;;;6250984;23;20192;-91
2022/06/25 06:25:33;;;;;;;;;;;30.30;1.00;;;;;;6236193;22;20039;-91
2022/06/25 06:37:59;;;;;;;6.05;3.90;;;34.50;1.00;;;;;;6273162;22;20148;-94
2022/06/25 06:49:35;;;;;;;11.68;10.77;;;37.70;1.00;;;;;;6231917;22;20527;-93
2022/06/25 06:52:08;;;;;;;36.88;33.95;;;38.60;1.00;;;;;;6249223;23;20172;-94
2022/06/25 06:54:35;;;;;;;6.43;3.10;;;39.30;1.00;;;;;;6244695;23;20169;-91
2022/06/25 06:57:02;;;;;;;4.68;3.40;;;39.60;1.00;;;;;;6245918;23;20246;-91
2022/06/25 06:59:30;;;;;;;4.55;3.50;;;39.70;1.00;;;;;;6249026;23;20164;-93
2022/06/25 07:01:58;;;;;;;5.22;3.45;;;39.40;1.00;;;;;;6245651;23;20170;-90
2022/06/25 07:04:25;;;;;;;4.32;3.40;;;39.00;1.00;;;;;;6246095;23;20700;-91
2022/06/25 07:09:41;;;;;;;64.38;47.25;;;38.50;1.00;;;;;;6280108;22;20198;-90
2022/06/25 07:12:08;;;;;;;13.48;7.78;;;38.50;1.00;;;;;;6240329;22;20192;-91
2022/06/25 07:18:08;;;;;;;3.70;3.40;;;39.80;1.00;;;;;;6245065;23;20151;-90
2022/06/25 07:20:51;;;;;;;;;;;;;;;;;;;;;
2022/06/25 07:23:19;;;;;;;5.45;3.20;;;41.30;1.00;;;;;;6248225;23;20171;-89
2022/06/25 07:25:47;;;;;;;5.32;3.00;;;41.90;1.00;;;;;;6243745;23;20172;-89
2022/06/25 07:28:14;;;;;;;4.22;3.10;;;42.40;1.00;;;;;;6249338;23;20523;-89
2022/06/25 07:30:42;;;;;;;3.90;3.05;;;42.60;1.00;;;;;;6244705;23;20274;-89
2022/06/25 07:33:09;;;;;;;10.02;3.38;;;42.90;1.00;;;;;;6243972;23;20618;-88
2022/06/25 07:35:37;;;;;;;3.83;3.05;;;43.10;1.00;;;;;;6247176;22;20177;-90
2022/06/25 07:38:04;;;;;;;4.13;3.10;;;43.60;1.00;;;;;;6247663;23;20584;-90
2022/06/25 07:40:31;;;;;;;7.32;3.05;;;44.10;1.00;;;;;;6246132;23;20171;-91
2022/06/25 07:43:01;;;;;;;4.55;2.92;;;43.90;1.00;;;;;;6240749;23;20188;-90
2022/06/25 07:45:28;;;;;;;3.78;2.90;;;43.80;1.00;;;;;;6242315;23;20168;-89
2022/06/25 07:47:56;;;;;;;5.82;3.25;;;43.70;1.00;;;;;;6243115;23;20192;-87
2022/06/25 07:53:08;;;;;;;3.38;3.08;;;43.90;1.00;;;;;;6242557;23;20166;-89
2022/06/25 07:55:35;;;;;;;5.10;2.90;;;43.60;1.00;;;;;;6239757;23;20167;-85
2022/06/25 07:58:04;;;;;;;3.58;3.00;;;43.40;1.00;;;;;;6236015;23;20172;-88
2022/06/25 08:00:33;;;;;;;5.03;2.95;;;43.40;1.00;;;;;;6243557;23;20614;-89
2022/06/25 08:03:01;;;;;;;4.40;3.13;;;42.90;1.00;;;;;;6243805;23;20187;-88
2022/06/25 08:05:28;;;;;;;4.30;2.92;;;42.70;1.00;;;;;;6243749;23;20227;-89
2022/06/25 08:07:56;;;;;;;5.93;3.00;;;42.60;1.00;;;;;;6243350;23;20688;-87
2022/06/25 08:10:23;;;;;;;5.03;3.30;;;42.70;1.00;;;;;;6243629;23;20160;-88
2022/06/25 08:12:50;;;;;;;5.72;3.25;;;42.70;1.00;;;;;;6243906;23;20168;-86
2022/06/25 08:15:20;;;;;;;5.63;3.38;;;42.20;1.00;;;;;;6244075;23;20170;-88
2022/06/25 08:17:47;;;;;;;9.60;3.72;;;41.70;1.00;;;;;;6242120;23;20240;-88
2022/06/25 08:20:14;;;;;;;5.32;3.85;;;41.30;1.00;;;;;;6243187;22;20251;-88
2022/06/25 08:22:42;;;;;;;5.15;3.58;;;40.70;1.00;;;;;;6243058;23;20239;-88
2022/06/25 08:25:09;;;;;;;4.68;3.58;;;40.10;1.00;;;;;;6244457;23;20041;-89
2022/06/25 08:27:44;;;;;;;4.95;3.72;;;39.80;1.00;;;;;;6244644;23;20168;-88
2022/06/25 08:30:12;;;;;;;4.55;3.88;;;39.50;1.00;;;;;;6244438;23;20621;-88
2022/06/25 08:32:41;;;;;;;14.57;3.80;;;39.10;1.00;;;;;;6243256;23;20175;-87
2022/06/25 08:35:08;;;;;;;4.07;3.53;;;39.10;1.00;;;;;;6245173;23;20619;-86
2022/06/25 08:37:38;;;;;;;4.32;3.50;;;39.00;1.00;;;;;;6244294;23;20221;-87
2022/06/25 08:40:07;;;;;;;4.28;3.90;;;39.10;1.00;;;;;;6245649;23;20157;-87
2022/06/25 08:42:35;;;;;;;6.90;3.50;;;38.90;1.00;;;;;;6242882;23;20233;-87
2022/06/25 08:45:03;;;;;;;4.10;3.50;;;38.60;1.00;;;;;;6245659;23;20149;-88
2022/06/25 08:47:30;;;;;;;4.30;3.90;;;38.40;1.00;;;;;;6244752;23;20206;-87
2022/06/25 08:49:59;;;;;;;6.00;3.78;;;38.20;1.00;;;;;;6244855;22;20257;-90
2022/06/25 08:52:42;;;;;;;;;;;;;;;;;;;;;
2022/06/25 08:55:11;;;;;;;4.68;4.03;;;38.00;1.00;;;;;;6245181;23;20168;-87
2022/06/25 08:57:39;;;;;;;5.45;3.65;;;37.80;1.00;;;;;;6246685;23;20222;-87
2022/06/25 09:00:08;;;;;;;4.80;3.70;;;37.80;1.00;;;;;;6246307;23;20175;-86
2022/06/25 09:02:39;;;;;;;6.53;3.65;;;38.00;1.00;;;;;;6264544;22;20168;-91
2022/06/25 09:05:50;;;;;;;4.57;3.13;;;38.00;1.00;;;;;;6274576;23;20148;-90
2022/06/25 09:08:27;;;;;;;3.80;3.45;;;38.10;1.00;;;;;;6275107;22;20175;-89
2022/06/25 09:11:26;;;;;;;4.13;3.60;;;38.50;1.00;;;;;;6275296;22;20178;-92
2022/06/25 09:14:27;;;;;;;6.50;3.92;;;38.90;1.00;;;;;;6275414;22;20175;-90
2022/06/25 09:16:59;;;;;;;4.38;3.50;;;39.10;1.00;;;;;;6246675;23;20237;-87
2022/06/25 09:19:41;;;;;;;4.82;3.10;;;39.20;1.00;;;;;;6246992;23;20175;-92
2022/06/25 09:22:11;;;;;;;6.30;3.08;;;39.20;1.00;;;;;;6245198;23;20164;-88
2022/06/25 09:24:47;;;;;;;3.65;3.05;;;39.00;1.00;;;;;;6245169;23;20514;-88
2022/06/25 09:27:19;;;;;;;3.80;3.33;;;38.70;1.00;;;;;;6270214;22;20140;-91
2022/06/25 09:30:30;;;;;;;3.88;3.47;;;38.60;1.00;;;;;;6275153;22;20187;-94
2022/06/25 09:32:59;;;;;;;6.85;4.20;;;38.60;1.00;;;;;;6265979;22;20156;-88
2022/06/25 09:35:33;;;;;;;5.25;3.35;;;38.50;1.00;;;;;;6246326;23;20167;-90
2022/06/25 09:38:07;;;;;;;3.95;3.55;;;38.20;1.00;;;;;;6246071;23;20461;-87
2022/06/25 09:40:34;;;;;;;;;;;37.90;1.00;;;;;;6246570;23;20094;-88
2022/06/25 09:43:11;;;;;;;5.10;3.92;;;37.40;1.00;;;;;;6245486;23;20520;-88
2022/06/25 09:46:03;;;;;;;;;;;37.10;1.00;;;;;;6246836;23;20074;-88
2022/06/25 09:48:31;;;;;;;4.68;3.83;;;36.70;1.00;;;;;;6244983;23;20250;-88
2022/06/25 09:51:09;;;;;;;5.00;4.05;;;36.30;1.00;;;;;;6245922;23;20024;-87
2022/06/25 09:53:47;;;;;;;4.72;3.70;;;36.10;1.00;;;;;;6245294;23;20222;-86
2022/06/25 09:56:20;;;;;;;4.00;3.70;;;35.80;1.00;;;;;;6246811;23;20163;-91
2022/06/25 09:58:48;;;;;;;4.70;3.53;;;35.60;1.00;;;;;;6246197;23;20203;-87
2022/06/25 10:01:17;;;;;;;7.10;3.72;;;35.70;1.00;;;;;;6245671;23;20489;-87
2022/06/25 10:03:44;;;;;;;4.63;3.55;;;35.90;1.00;;;;;;6245780;23;20642;-85
2022/06/25 10:06:13;;;;;;;7.80;3.85;;;35.90;1.00;;;;;;6245414;23;20164;-85
2022/06/25 10:08:45;;;;;;;6.00;3.28;;;35.80;1.00;;;;;;6246076;23;20222;-86
2022/06/25 10:11:13;;;;;;;15.70;3.80;;;36.00;1.00;;;;;;6246108;23;20160;-85
2022/06/25 10:13:40;;;;;;;;;;;36.20;1.00;;;;;;6246319;23;19919;-85
2022/06/25 10:16:07;;;;;;;;;;;36.10;1.00;;;;;;6246375;23;19919;-86
2022/06/25 10:18:36;;;;;;;;;;;35.90;1.00;;;;;;6246378;23;19922;-84
2022/06/25 10:21:03;;;;;;;;;;;35.90;1.00;;;;;;6246432;23;19915;-86
2022/06/25 10:23:30;;;;;;;;;;;35.90;1.00;;;;;;6245812;23;19922;-85
2022/06/25 10:25:58;;;;;;;;;;;35.90;1.00;;;;;;6245976;23;19919;-84
2022/06/25 10:28:26;;;;;;;;;;;35.80;1.00;;;;;;6246674;23;19947;-88
2022/06/25 10:30:53;;;;;;;;;;;35.60;1.00;;;;;;6254371;23;20327;-87
2022/06/25 10:33:43;;;;;;;;;;;35.60;1.00;;;;;;6252383;23;19919;-92
2022/06/25 10:36:10;;;;;;;;;;;35.70;1.00;;;;;;6246513;23;19919;-89
2022/06/25 10:38:37;;;;;;;;;;;35.40;1.00;;;;;;6250837;22;19934;-89
2022/06/25 10:43:54;;;;;;;;;;;35.20;1.00;;;;;;6244805;23;19919;-88
2022/06/25 10:46:23;;;;;;;7.93;4.00;;;35.20;1.00;;;;;;6245929;23;20044;-89
2022/06/25 10:48:52;;;;;;;6.10;3.50;;;35.40;1.00;;;;;;6244899;23;20203;-88
2022/06/25 10:51:29;;;;;;;8.13;3.88;;;35.40;1.00;;;;;;6246292;22;20200;-89
2022/06/25 10:53:57;;;;;;;5.38;3.55;;;35.30;1.00;;;;;;6245903;23;20175;-87
2022/06/25 10:56:25;;;;;;;4.63;3.55;;;35.20;1.00;;;;;;6245360;23;20202;-87
2022/06/25 10:58:53;;;;;;;7.40;3.33;;;35.00;1.00;;;;;;6245178;23;20493;-87
2022/06/25 11:01:35;;;;;;;4.45;3.58;;;35.00;1.00;;;;;;6245474;23;20164;-87
2022/06/25 11:04:08;;;;;;;4.10;3.70;;;35.10;1.00;;;;;;6245518;23;20180;-86
2022/06/25 11:06:38;;;;;;;4.70;3.42;;;35.10;1.00;;;;;;6245735;23;20156;-84
2022/06/25 11:09:17;;;;;;;4.68;3.60;;;35.20;1.00;;;;;;6244632;23;20160;-87
2022/06/25 11:11:48;;;;;;;5.85;3.53;;;35.50;1.00;;;;;;6244131;23;20187;-86
2022/06/25 11:14:19;;;;;;;4.63;3.40;;;35.60;1.00;;;;;;6245573;23;20160;-87
2022/06/25 11:16:47;;;;;;;4.43;3.50;;;35.60;1.00;;;;;;6244518;23;20159;-88
2022/06/25 11:19:14;;;;;;;5.55;3.65;;;35.20;1.00;;;;;;6243967;23;20529;-89
2022/06/25 11:21:43;;;;;;;5.25;3.55;;;34.60;1.00;;;;;;6244283;23;20240;-90
2022/06/25 11:24:22;;;;;;;4.20;3.28;;;33.90;1.00;;;;;;6248947;23;20184;-90
2022/06/25 11:29:39;;;;;;;5.18;3.42;;;33.80;1.00;;;;;;6244974;23;20567;-88
2022/06/25 11:32:07;;;;;;;5.97;3.53;;;33.60;1.00;;;;;;6245268;23;20161;-90
2022/06/25 11:34:35;;;;;;;5.32;3.33;;;33.40;1.00;;;;;;6244910;23;20203;-88
2022/06/25 11:37:06;;;;;;;4.13;3.65;;;33.40;1.00;;;;;;6245127;23;20160;-87
2022/06/25 11:39:34;;;;;;;9.35;3.60;;;33.30;1.00;;;;;;6243898;23;20169;-88
2022/06/25 11:42:09;;;;;;;3.88;3.20;;;33.30;1.00;;;;;;6241063;23;20673;-89
2022/06/25 11:44:45;;;;;;;3.85;3.00;;;33.40;1.00;;;;;;6243858;23;20210;-87
2022/06/25 11:47:14;;;;;;;4.65;3.20;;;33.60;1.00;;;;;;6244965;23;20223;-89
2022/06/25 11:49:43;;;;;;;8.32;3.10;;;33.70;1.00;;;;;;6244511;22;20670;-88
2022/06/25 11:52:11;;;;;;;8.60;3.22;;;33.90;1.00;;;;;;6244850;23;20157;-88
2022/06/25 11:54:40;;;;;;;5.15;3.28;;;34.00;1.00;;;;;;6244961;23;20168;-87
2022/06/25 11:57:10;;;;;;;5.60;3.33;;;34.00;1.00;;;;;;6242551;23;20175;-87
2022/06/25 11:59:39;;;;;;;4.40;3.17;;;34.00;1.00;;;;;;6242851;23;20164;-86
2022/06/25 12:02:07;;;;;;;7.15;3.08;;;34.10;1.00;;;;;;6244085;23;20299;-85
2022/06/25 12:04:51;;;;;;;3.95;3.25;;;34.20;1.00;;;;;;6243248;23;20191;-87
2022/06/25 12:07:19;;;;;;;3.95;3.00;;;34.40;1.00;;;;;;6242862;23;20169;-88
2022/06/25 12:09:47;;;;;;;4.57;3.17;;;34.40;1.00;;;;;;6244871;23;20169;-85
2022/06/25 12:12:17;;;;;;;5.35;3.00;;;34.00;1.00;;;;;;6244336;23;20164;-84
2022/06/25 12:14:46;;;;;;;5.93;3.08;;;33.70;1.00;;;;;;6243798;23;20168;-87
2022/06/25 12:17:13;;;;;;;4.50;3.10;;;33.60;1.00;;;;;;6245643;23;20172;-84
2022/06/25 12:19:48;;;;;;;5.40;3.00;;;33.70;1.00;;;;;;6244670;23;20187;-87
2022/06/25 12:22:22;;;;;;;3.95;3.00;;;33.80;1.00;;;;;;6245006;23;20152;-89
2022/06/25 12:24:51;;;;;;;4.05;3.35;;;33.70;1.00;;;;;;6244909;23;20502;-89
2022/06/25 12:27:39;;;;;;;3.87;3.27;;;33.80;1.00;;;;;;6244835;23;20664;-91
2022/06/25 12:30:07;;;;;;;5.13;3.10;;;33.70;1.00;;;;;;6244224;23;20050;-91
2022/06/25 12:32:42;;;;;;;7.68;3.45;;;33.40;1.00;;;;;;6244470;23;20172;-92
2022/06/25 12:35:26;;;;;;;6.90;3.50;;;33.30;1.00;;;;;;6244818;23;20239;-92
2022/06/25 12:38:01;;;;;;;3.95;2.97;;;33.20;1.00;;;;;;6244151;23;20554;-86
2022/06/25 12:40:29;;;;;;;7.13;3.00;;;33.20;1.00;;;;;;6243640;23;20289;-87
2022/06/25 12:42:58;;;;;;;5.03;3.10;;;33.20;1.00;;;;;;6245081;23;20168;-87
2022/06/25 12:45:25;;;;;;;3.75;3.00;;;33.30;1.00;;;;;;6244685;23;20192;-89
2022/06/25 12:47:56;;;;;;;5.22;2.90;;;33.20;1.00;;;;;;6249663;23;20167;-92
2022/06/25 12:50:25;;;;;;;5.32;3.00;;;33.30;1.00;;;;;;6244163;23;20198;-86
2022/06/25 12:52:54;;;;;;;3.75;2.92;;;33.20;1.00;;;;;;6243200;23;20641;-90
2022/06/25 12:55:22;;;;;;;4.40;2.90;;;33.20;1.00;;;;;;6244415;23;20172;-85
2022/06/25 12:57:50;;;;;;;4.72;2.90;;;33.10;1.00;;;;;;6244255;23;20175;-85
2022/06/25 13:00:20;;;;;;;4.40;3.20;;;33.10;1.00;;;;;;6244355;23;20149;-85
2022/06/25 13:02:48;;;;;;;4.45;2.97;;;33.10;1.00;;;;;;6244661;23;20165;-84
2022/06/25 13:05:15;;;;;;;6.65;2.92;;;32.90;1.00;;;;;;6244766;23;20246;-87
2022/06/25 13:07:42;;;;;;;6.00;3.03;;;32.90;1.00;;;;;;6248377;23;20198;-87
2022/06/25 13:10:10;;;;;;;5.07;3.22;;;32.90;1.00;;;;;;6244643;23;20165;-88
2022/06/25 13:12:37;;;;;;;3.97;3.42;;;33.00;1.00;;;;;;6245596;23;20165;-88
2022/06/25 13:15:06;;;;;;;3.42;3.13;;;33.20;1.00;;;;;;6256910;23;20172;-88
2022/06/25 13:17:34;;;;;;;6.30;3.10;;;33.20;1.00;;;;;;6248768;23;20175;-87
2022/06/25 13:20:02;;;;;;;5.28;3.20;;;33.40;1.00;;;;;;6249823;23;20172;-86
2022/06/25 13:22:29;;;;;;;5.10;3.22;;;33.40;1.00;;;;;;6246184;23;20551;-87
2022/06/25 13:24:56;;;;;;;4.97;3.33;;;33.40;1.00;;;;;;6247216;23;20941;-88
2022/06/25 13:27:23;;;;;;;3.08;2.78;;;33.40;1.00;;;;;;6246069;23;20165;-87
2022/06/25 13:29:50;;;;;;;3.83;3.22;;;33.40;1.00;;;;;;6246177;23;20172;-88
2022/06/25 13:32:25;;;;;;;5.88;3.13;;;33.40;1.00;;;;;;6246979;23;20171;-92
2022/06/25 13:34:54;;;;;;;4.43;3.08;;;33.40;1.00;;;;;;6246531;23;20155;-87
2022/06/25 13:37:21;;;;;;;4.82;3.28;;;33.40;1.00;;;;;;6248463;23;20175;-89
2022/06/25 13:39:48;;;;;;;4.75;3.30;;;33.40;1.00;;;;;;6246409;23;20611;-87
2022/06/25 13:42:21;;;;;;;4.47;3.25;;;33.40;1.00;;;;;;6247176;23;20175;-91
2022/06/25 13:44:49;;;;;;;3.90;3.20;;;33.40;1.00;;;;;;6245834;23;20192;-95
2022/06/25 13:47:16;;;;;;;5.05;3.30;;;33.40;1.00;;;;;;6250392;23;20637;-90
2022/06/25 13:49:43;;;;;;;5.25;3.70;;;33.30;1.00;;;;;;6246115;23;20199;-85
2022/06/25 13:52:11;;;;;;;8.75;3.10;;;33.20;1.00;;;;;;6256711;23;20461;-87
2022/06/25 13:54:38;;;;;;;4.60;3.33;;;33.20;1.00;;;;;;6246242;23;20171;-86
2022/06/25 13:57:08;;;;;;;6.70;3.20;;;33.10;1.00;;;;;;6246485;23;20650;-90
2022/06/25 13:59:35;;;;;;;4.65;3.38;;;33.00;1.00;;;;;;6245754;23;20172;-86
2022/06/25 14:02:04;;;;;;;5.43;3.47;;;33.00;1.00;;;;;;6245852;23;20172;-86
2022/06/25 14:04:41;;;;;;;4.55;3.72;;;33.10;1.00;;;;;;6256272;23;20188;-93
2022/06/25 14:07:08;;;;;;;3.78;3.47;;;33.10;1.00;;;;;;6253068;23;20502;-87
2022/06/25 14:09:36;;;;;;;4.00;3.40;;;33.10;1.00;;;;;;6259055;23;20185;-87
2022/06/25 14:12:04;;;;;;;4.00;3.60;;;33.10;1.00;;;;;;6245732;23;20176;-88
2022/06/25 14:14:34;;;;;;;8.82;3.20;;;33.10;1.00;;;;;;6245744;23;20175;-90
2022/06/25 14:17:01;;;;;;;5.90;3.30;;;33.10;1.00;;;;;;6245215;23;20198;-86
2022/06/25 14:19:29;;;;;;;4.97;3.55;;;33.20;1.00;;;;;;6245696;23;20176;-86
2022/06/25 14:21:56;;;;;;;4.63;3.30;;;33.20;1.00;;;;;;6246035;23;20169;-87
2022/06/25 14:27:19;;;;;;;5.30;3.20;;;33.20;1.00;;;;;;6244222;23;20231;-93
2022/06/25 14:29:49;;;;;;;5.93;3.60;;;33.20;1.00;;;;;;6246211;23;20244;-92
2022/06/25 14:32:18;;;;;;;5.57;3.45;;;33.30;1.00;;;;;;6245688;23;20180;-90
2022/06/25 14:34:59;;;;;;;4.82;3.50;;;33.30;1.00;;;;;;6246027;23;20160;-90
2022/06/25 14:43:06;;;;;;;6.28;4.28;;;33.30;1.00;;;;;;6245560;23;20248;-91
2022/06/25 14:45:46;;;;;;;5.05;3.70;;;33.20;1.00;;;;;;6245247;23;20268;-90
2022/06/25 14:48:16;;;;;;;6.30;3.30;;;33.20;1.00;;;;;;6245989;23;20161;-93
2022/06/25 14:50:43;;;;;;;5.90;4.60;;;33.30;1.00;;;;;;6244704;22;20196;-87
2022/06/25 14:53:11;;;;;;;4.53;4.03;;;33.40;1.00;;;;;;6245005;23;20202;-87
2022/06/25 14:55:38;;;;;;;5.03;3.53;;;33.40;1.00;;;;;;6245561;23;20172;-86
2022/06/25 14:58:08;;;;;;;5.05;4.07;;;33.50;1.00;;;;;;6245614;23;20223;-88
2022/06/25 15:00:35;;;;;;;4.40;3.78;;;33.40;1.00;;;;;;6245017;23;20168;-87
2022/06/25 15:03:02;;;;;;;4.43;3.70;;;33.40;1.00;;;;;;6244842;23;20164;-89
2022/06/25 15:05:30;;;;;;;5.47;3.92;;;33.40;1.00;;;;;;6247889;23;20535;-88
2022/06/25 15:07:57;;;;;;;4.65;3.40;;;33.20;1.00;;;;;;6245763;23;20218;-87
2022/06/25 15:10:32;;;;;;;6.10;4.25;;;33.20;1.00;;;;;;6247784;23;20172;-93
2022/06/25 15:12:59;;;;;;;5.35;3.85;;;33.10;1.00;;;;;;6250648;23;20172;-88
2022/06/25 15:15:27;;;;;;;3.90;3.50;;;32.80;1.00;;;;;;6245497;23;20179;-87
2022/06/25 15:17:54;;;;;;;8.35;3.85;;;32.60;1.00;;;;;;6245202;23;20176;-84
2022/06/25 15:20:22;;;;;;;4.13;3.72;;;32.40;1.00;;;;;;6245497;23;20168;-84
2022/06/25 15:22:49;;;;;;;6.35;3.85;;;32.20;1.00;;;;;;6245488;23;20172;-84
2022/06/25 15:25:16;;;;;;;6.60;3.63;;;32.20;1.00;;;;;;6244706;23;20728;-85
2022/06/25 15:27:43;;;;;;;5.28;3.92;;;32.00;1.00;;;;;;6245513;23;20172;-85
2022/06/25 15:30:11;;;;;;;4.88;4.25;;;32.00;1.00;;;;;;6245332;23;20172;-85
2022/06/25 15:32:40;;;;;;;4.70;3.95;;;32.00;1.00;;;;;;6245100;23;20169;-86
2022/06/25 15:35:07;;;;;;;5.13;4.05;;;31.90;1.00;;;;;;6244970;23;20168;-87
2022/06/25 15:37:35;;;;;;;5.13;3.80;;;31.90;1.00;;;;;;6244946;23;20168;-85
2022/06/25 15:40:02;;;;;;;7.30;4.20;;;31.90;1.00;;;;;;6245288;23;20214;-87
2022/06/25 15:42:29;;;;;;;4.55;3.85;;;31.80;1.00;;;;;;6245332;23;20171;-86
2022/06/25 15:44:56;;;;;;;6.53;3.80;;;31.70;1.00;;;;;;6245049;23;20188;-86